createdAt,value
2022-08-12T00:00:19.584Z,1.93
2022-08-12T00:03:52.496Z,2.00
2022-08-12T00:07:13.603Z,1.80
2022-08-12T00:10:49.268Z,2.33
2022-08-12T00:14:13.913Z,2.40
2022-08-12T00:17:51.391Z,2.10
2022-08-12T00:21:12.128Z,2.17
2022-08-12T00:24:50.562Z,2.20
2022-08-12T00:28:11.766Z,2.30
2022-08-12T00:31:37.352Z,1.95
2022-08-12T00:35:08.777Z,2.37
2022-08-12T00:38:40.630Z,1.90
2022-08-12T00:42:01.890Z,1.40
2022-08-12T00:45:27.788Z,1.87
2022-08-12T00:48:43.932Z,2.67
2022-08-12T00:52:21.782Z,2.60
2022-08-12T00:55:37.795Z,1.97
2022-08-12T00:59:11.010Z,2.20
2022-08-12T01:02:26.920Z,2.55
2022-08-12T01:06:02.440Z,2.17
2022-08-12T01:09:27.558Z,3.20
2022-08-12T01:13:07.242Z,2.60
2022-08-12T01:16:20.895Z,2.63
2022-08-12T01:19:51.892Z,3.20
2022-08-12T01:23:08.999Z,3.20
2022-08-12T01:26:36.706Z,3.20
2022-08-12T01:29:53.263Z,3.00
2022-08-12T01:33:14.059Z,2.80
2022-08-12T01:36:33.033Z,3.13
2022-08-12T01:40:34.980Z,3.07
2022-08-12T01:43:22.037Z,2.97
2022-08-12T01:46:52.115Z,2.80
2022-08-12T01:50:11.057Z,2.80
2022-08-12T01:53:48.574Z,3.57
2022-08-12T01:56:58.090Z,3.13
2022-08-12T02:00:35.923Z,2.60
2022-08-12T02:04:08.792Z,3.03
2022-08-12T02:07:33.763Z,3.27
2022-08-12T02:10:51.916Z,2.70
2022-08-12T02:14:13.227Z,3.87
2022-08-12T02:17:54.627Z,2.73
2022-08-12T02:21:05.186Z,2.45
2022-08-12T02:24:36.266Z,3.25
2022-08-12T02:27:52.139Z,2.90
2022-08-12T02:31:21.140Z,2.80
2022-08-12T02:34:41.126Z,3.47
2022-08-12T02:41:15.215Z,2.90
2022-08-12T02:44:47.167Z,2.73
2022-08-12T02:48:03.370Z,3.50
2022-08-12T02:51:38.304Z,3.20
2022-08-12T02:54:54.202Z,2.70
2022-08-12T02:58:33.203Z,3.60
2022-08-12T03:01:47.413Z,3.20
2022-08-12T03:05:12.331Z,3.20
2022-08-12T03:08:32.819Z,3.80
2022-08-12T03:12:02.448Z,3.10
2022-08-12T03:15:18.349Z,3.45
2022-08-12T03:18:50.374Z,3.70
2022-08-12T03:22:09.632Z,3.87
2022-08-12T03:25:42.401Z,3.67
2022-08-12T03:29:08.293Z,4.67
2022-08-12T03:32:39.644Z,2.90
2022-08-12T03:38:56.631Z,3.45
2022-08-12T03:42:17.076Z,3.00
2022-08-12T03:45:52.610Z,2.83
2022-08-12T03:49:14.338Z,2.77
2022-08-12T03:52:35.292Z,2.93
2022-08-12T03:55:44.320Z,3.27
2022-08-12T03:59:23.225Z,3.10
2022-08-12T04:02:40.778Z,3.00
2022-08-12T04:06:08.447Z,3.83
2022-08-12T04:09:24.455Z,2.33
2022-08-12T04:12:58.303Z,2.20
2022-08-12T04:16:16.430Z,2.13
2022-08-12T04:19:44.486Z,1.95
2022-08-12T04:23:00.713Z,2.75
2022-08-12T04:26:34.483Z,3.57
2022-08-12T04:30:31.276Z,2.10
2022-08-12T04:33:26.529Z,3.00
2022-08-12T04:36:34.734Z,3.05
2022-08-12T04:40:11.549Z,2.73
2022-08-12T04:44:01.021Z,2.85
2022-08-12T04:47:01.779Z,3.23
2022-08-12T04:50:33.825Z,2.77
2022-08-12T04:53:50.601Z,3.00
2022-08-12T04:57:06.590Z,3.45
2022-08-12T05:00:37.943Z,2.83
2022-08-12T05:03:53.750Z,2.57
2022-08-12T05:07:31.551Z,3.80
2022-08-12T05:10:40.629Z,4.20
2022-08-12T05:14:11.719Z,3.30
2022-08-12T05:17:15.630Z,3.10
2022-08-12T05:20:48.687Z,3.00
2022-08-12T05:24:01.847Z,3.10
2022-08-12T05:27:20.727Z,2.37
2022-08-12T05:30:37.855Z,2.47
2022-08-12T05:33:54.623Z,3.03
2022-08-12T05:36:58.688Z,2.30
2022-08-12T05:40:16.097Z,2.27
2022-08-12T05:46:41.805Z,2.90
2022-08-12T05:50:09.856Z,2.70
2022-08-12T05:53:38.869Z,2.70
2022-08-12T05:56:57.755Z,2.20
2022-08-12T06:00:17.876Z,2.95
2022-08-12T06:03:48.771Z,2.50
2022-08-12T06:06:52.820Z,2.47
2022-08-12T06:10:08.893Z,2.80
2022-08-12T06:16:17.088Z,2.20
2022-08-12T06:22:50.673Z,2.73
2022-08-12T06:29:06.868Z,3.37
2022-08-12T06:32:27.519Z,3.30
2022-08-12T06:35:48.738Z,2.57
2022-08-12T06:39:17.011Z,2.73
2022-08-12T06:42:42.068Z,2.87
2022-08-12T06:48:53.866Z,2.63
2022-08-12T06:52:08.269Z,3.25
2022-08-12T06:55:31.317Z,3.20
2022-08-12T06:58:50.984Z,3.23
2022-08-12T07:02:07.143Z,3.33
2022-08-12T07:05:28.939Z,3.27
2022-08-12T07:08:44.938Z,3.00
2022-08-12T07:12:17.193Z,3.00
2022-08-12T07:15:39.036Z,2.70
2022-08-12T07:19:17.107Z,3.03
2022-08-12T07:22:21.067Z,2.83
2022-08-12T07:25:46.110Z,3.07
2022-08-12T07:29:06.131Z,3.10
2022-08-12T07:32:22.025Z,2.95
2022-08-12T07:38:52.068Z,3.20
2022-08-12T07:41:56.151Z,2.87
2022-08-12T07:45:13.713Z,2.67
2022-08-12T07:48:34.189Z,2.57
2022-08-12T07:52:08.164Z,3.23
2022-08-12T07:55:12.198Z,3.13
2022-08-12T07:58:36.258Z,2.90
2022-08-12T08:05:15.192Z,2.87
2022-08-12T08:11:27.862Z,2.40
2022-08-12T08:14:32.173Z,2.70
2022-08-12T08:18:04.316Z,2.40
2022-08-12T08:21:21.138Z,2.80
2022-08-12T08:24:52.210Z,2.60
2022-08-12T08:28:10.573Z,2.70
2022-08-12T08:31:28.246Z,2.40
2022-08-12T08:34:53.304Z,3.00
2022-08-12T08:38:32.453Z,2.45
2022-08-12T08:42:16.293Z,2.37
2022-08-12T08:45:05.446Z,2.30
2022-08-12T08:48:09.250Z,2.33
2022-08-12T08:51:28.303Z,2.47
2022-08-12T08:57:52.413Z,2.70
2022-08-12T09:00:56.268Z,3.05
2022-08-12T09:07:16.781Z,2.10
2022-08-12T09:14:09.970Z,2.00
2022-08-12T10:10:57.195Z,2.13
2022-08-12T10:14:13.645Z,1.90
2022-08-12T10:18:05.933Z,2.33
2022-08-12T10:21:03.620Z,2.17
2022-08-12T10:24:39.721Z,2.15
2022-08-12T10:28:25.003Z,2.60
2022-08-12T10:32:15.680Z,2.55
2022-08-12T10:34:53.507Z,1.77
2022-08-12T10:38:33.437Z,1.80
2022-08-12T10:41:22.232Z,2.67
2022-08-12T10:44:55.561Z,2.40
2022-08-12T10:51:51.673Z,2.13
2022-08-12T10:54:27.105Z,2.05
2022-08-12T10:58:15.559Z,1.70
2022-08-12T11:01:50.212Z,2.20
2022-08-12T11:04:41.327Z,2.05
2022-08-12T11:08:36.480Z,2.10
2022-08-12T11:10:45.859Z,1.60
2022-08-12T11:13:50.386Z,1.70
2022-08-12T11:17:33.968Z,2.20
2022-08-12T11:20:32.879Z,1.87
2022-08-12T11:23:53.637Z,2.10
2022-08-12T11:26:59.854Z,2.10
2022-08-12T11:30:32.116Z,1.93
2022-08-12T11:34:04.208Z,1.92
2022-08-12T11:39:59.760Z,2.10
2022-08-12T11:43:19.785Z,2.20
2022-08-12T11:55:46.691Z,2.15
2022-08-12T12:05:08.931Z,2.20
2022-08-12T12:08:40.619Z,2.10
2022-08-12T12:11:49.535Z,2.08
2022-08-12T12:14:54.888Z,2.25
2022-08-12T12:18:07.129Z,2.20
2022-08-12T12:21:47.172Z,2.50
2022-08-12T12:24:42.343Z,2.42
2022-08-12T12:28:35.475Z,2.55
2022-08-12T12:32:11.208Z,1.90
2022-08-12T12:34:38.983Z,2.03
2022-08-12T12:38:25.129Z,2.70
2022-08-12T12:42:43.853Z,2.27
2022-08-12T12:44:51.008Z,2.65
2022-08-12T12:47:50.033Z,2.67
2022-08-12T12:51:51.776Z,2.40
2022-08-12T12:54:50.977Z,2.12
2022-08-12T13:01:26.621Z,2.63
2022-08-12T13:04:43.984Z,2.73
2022-08-12T13:08:01.349Z,2.30
2022-08-12T13:11:41.651Z,2.37
2022-08-12T13:14:33.115Z,2.25
2022-08-12T13:18:05.133Z,1.90
2022-08-12T13:21:32.641Z,2.75
2022-08-12T13:24:58.214Z,2.70
2022-08-12T13:31:25.227Z,2.33
2022-08-12T13:34:31.878Z,2.40
2022-08-12T13:37:56.094Z,2.10
2022-08-12T13:41:00.048Z,2.03
2022-08-12T13:44:31.132Z,2.35
2022-08-12T13:47:51.524Z,2.37
2022-08-12T13:51:24.035Z,2.55
2022-08-12T13:54:24.125Z,1.92
2022-08-12T13:58:05.195Z,2.22
2022-08-12T14:01:09.263Z,2.10
2022-08-12T14:04:44.208Z,2.25
2022-08-12T14:08:05.353Z,2.37
2022-08-12T14:11:25.138Z,2.20
2022-08-12T14:17:30.180Z,2.17
2022-08-12T14:24:04.154Z,2.28
2022-08-12T14:30:15.261Z,2.65
2022-08-12T14:33:01.253Z,1.92
2022-08-12T14:36:35.553Z,2.03
2022-08-12T14:42:49.740Z,2.12
2022-08-12T14:46:21.746Z,2.40
2022-08-12T14:50:33.763Z,1.80
2022-08-12T14:56:59.000Z,1.85
2022-08-12T15:00:01.270Z,2.00
2022-08-12T15:03:08.829Z,1.70
2022-08-12T15:06:52.307Z,1.75
2022-08-12T15:09:43.032Z,1.83
2022-08-12T15:16:22.724Z,1.80
2022-08-12T15:20:22.361Z,2.10
2022-08-12T15:22:53.860Z,2.03
2022-08-12T15:26:21.161Z,2.00
2022-08-12T15:29:34.841Z,1.87
2022-08-12T15:33:12.958Z,2.40
2022-08-12T15:36:19.535Z,1.87
2022-08-12T15:39:34.502Z,1.70
2022-08-12T15:42:41.860Z,1.85
2022-08-12T15:46:15.110Z,1.75
2022-08-12T15:49:29.912Z,1.95
2022-08-12T15:53:14.003Z,2.10
2022-08-12T15:56:12.619Z,1.90
2022-08-12T16:00:02.329Z,1.85
2022-08-12T16:02:53.006Z,1.93
2022-08-12T16:06:22.452Z,1.80
2022-08-12T16:09:56.345Z,1.85
2022-08-12T16:13:10.037Z,2.30
2022-08-12T16:16:25.969Z,1.60
2022-08-12T16:20:04.068Z,1.90
2022-08-12T16:23:55.550Z,2.33
2022-08-12T16:27:15.901Z,1.60
2022-08-12T16:30:33.070Z,1.83
2022-08-12T16:34:01.098Z,2.03
2022-08-12T16:40:34.037Z,1.90
2022-08-12T16:44:09.930Z,1.40
2022-08-12T16:47:14.658Z,1.60
2022-08-12T16:50:44.931Z,1.77
2022-08-12T16:54:03.035Z,2.08
2022-08-12T16:57:34.551Z,1.80
2022-08-12T17:00:48.293Z,2.12
2022-08-12T17:04:27.986Z,1.75
2022-08-12T17:07:36.255Z,1.85
2022-08-12T17:14:25.131Z,1.80
2022-08-12T17:18:15.385Z,1.73
2022-08-12T17:21:14.187Z,1.55
2022-08-12T17:24:44.072Z,1.70
2022-08-12T17:27:57.005Z,1.70
2022-08-12T17:32:00.154Z,1.73
2022-08-12T17:34:44.820Z,1.73
2022-08-12T17:38:15.079Z,1.52
2022-08-12T17:41:56.756Z,1.90
2022-08-12T17:45:17.727Z,3.75
2022-08-12T17:48:18.136Z,2.20
2022-08-12T17:52:02.460Z,2.25
2022-08-12T17:55:07.205Z,2.55
2022-08-12T17:58:38.306Z,3.30
2022-08-12T18:01:54.232Z,2.92
2022-08-12T18:05:12.172Z,2.45
2022-08-12T18:08:32.327Z,2.80
2022-08-12T18:16:04.110Z,2.90
2022-08-12T18:19:06.309Z,2.72
2022-08-12T18:22:13.300Z,2.53
2022-08-12T18:26:14.765Z,2.08
2022-08-12T18:29:05.281Z,1.92
2022-08-12T18:32:59.126Z,2.30
2022-08-12T18:35:53.117Z,2.33
2022-08-12T18:41:06.017Z,2.35
2022-08-12T18:44:37.438Z,2.03
2022-08-12T18:48:06.367Z,1.83
2022-08-12T18:55:06.035Z,2.00
2022-08-12T19:02:19.133Z,2.00
2022-08-12T19:05:18.424Z,1.83
2022-08-12T19:08:37.396Z,1.87
2022-08-12T19:12:11.068Z,2.03
2022-08-12T19:15:29.918Z,2.08
2022-08-12T19:18:58.412Z,2.05
2022-08-12T19:22:14.733Z,1.73
2022-08-12T19:26:01.168Z,1.73
2022-08-12T19:29:11.415Z,1.83
2022-08-12T19:32:43.773Z,2.10
2022-08-12T19:36:24.523Z,1.85
2022-08-12T19:40:08.694Z,1.65
2022-08-12T20:38:07.009Z,2.30
2022-08-12T20:40:47.899Z,2.50
2022-08-12T20:44:17.036Z,2.40
2022-08-12T20:50:57.979Z,2.95
2022-08-12T20:54:32.677Z,2.87
2022-08-12T20:58:03.005Z,2.63
2022-08-12T21:04:37.661Z,2.53
2022-08-12T21:08:08.981Z,2.40
2022-08-12T21:11:27.093Z,2.70
2022-08-12T21:14:59.053Z,2.40
2022-08-12T21:18:27.388Z,2.70
2022-08-12T21:21:50.223Z,2.63
2022-08-12T21:24:50.036Z,3.70
2022-08-12T21:28:16.608Z,3.45
2022-08-12T21:34:44.061Z,3.23
2022-08-12T21:38:01.098Z,3.80
2022-08-12T21:41:34.299Z,3.30
2022-08-12T21:45:47.938Z,3.30
2022-08-12T21:51:26.561Z,3.07
2022-08-12T21:54:59.329Z,3.23
2022-08-12T21:58:16.726Z,3.20
2022-08-12T22:01:32.254Z,3.00
2022-08-12T22:04:53.015Z,3.20
2022-08-12T22:08:09.145Z,3.47
2022-08-12T22:11:41.236Z,3.67
2022-08-12T22:14:58.362Z,3.53
2022-08-12T22:18:16.098Z,3.53
2022-08-12T22:21:30.249Z,2.80
2022-08-12T22:25:01.193Z,3.57
2022-08-12T22:28:10.259Z,3.63
2022-08-12T22:31:46.372Z,3.37
2022-08-12T22:34:50.334Z,3.57
2022-08-12T22:38:10.791Z,3.80
2022-08-12T22:41:25.555Z,3.50
2022-08-12T22:44:52.526Z,3.57
2022-08-12T22:48:10.327Z,3.10
2022-08-12T22:52:01.338Z,2.97
2022-08-12T22:55:03.433Z,2.83
2022-08-12T22:58:07.331Z,3.05
2022-08-12T23:01:52.469Z,3.20
2022-08-12T23:04:55.422Z,3.27
2022-08-12T23:08:17.797Z,3.07
2022-08-12T23:11:45.381Z,3.20
2022-08-12T23:14:49.395Z,2.75
2022-08-12T23:18:05.708Z,3.30
2022-08-12T23:22:03.567Z,3.10
2022-08-12T23:25:00.086Z,2.90
2022-08-12T23:28:29.938Z,2.60
2022-08-12T23:32:01.843Z,2.73
2022-08-12T23:34:54.558Z,2.90
2022-08-12T23:38:31.763Z,2.80
2022-08-12T23:41:56.590Z,3.03
2022-08-12T23:45:19.397Z,2.67
2022-08-12T23:48:22.857Z,2.80
2022-08-12T23:51:39.691Z,2.50
2022-08-12T23:54:58.234Z,3.37
2022-08-12T23:58:21.590Z,2.90
